sensor_id;sensor_type;location;lat;lon;timestamp;temperature;humidity
21267;DHT22;10791;53.108;18.326;2023-03-01T04:02:02;-3.60;99.90
21267;DHT22;10791;53.108;18.326;2023-03-01T04:07:05;-3.60;99.90
21267;DHT22;10791;53.108;18.326;2023-03-01T04:12:09;-3.50;99.90
21267;DHT22;10791;53.108;18.326;2023-03-01T04:17:12;-3.60;99.90
21267;DHT22;10791;53.108;18.326;2023-03-01T04:22:15;-3.50;99.90
21267;DHT22;10791;53.108;18.326;2023-03-01T04:27:20;-3.50;99.90
21267;DHT22;10791;53.108;18.326;2023-03-01T04:32:23;-3.50;99.90
21267;DHT22;10791;53.108;18.326;2023-03-01T04:37:27;-3.50;99.90
21267;DHT22;10791;53.108;18.326;2023-03-01T04:42:30;-3.50;99.90
21267;DHT22;10791;53.108;18.326;2023-03-01T04:47:33;-3.50;99.90
21267;DHT22;10791;53.108;18.326;2023-03-01T04:52:40;-3.40;99.90
21267;DHT22;10791;53.108;18.326;2023-03-01T04:57:44;-3.40;99.90
21267;DHT22;10791;53.108;18.326;2023-03-01T05:02:56;-3.40;99.90
21267;DHT22;10791;53.108;18.326;2023-03-01T05:08:01;-3.40;99.90
21267;DHT22;10791;53.108;18.326;2023-03-01T05:13:05;-3.40;99.90
21267;DHT22;10791;53.108;18.326;2023-03-01T05:18:09;-3.30;99.90
21267;DHT22;10791;53.108;18.326;2023-03-01T05:23:14;-3.30;99.90
21267;DHT22;10791;53.108;18.326;2023-03-01T05:28:17;-3.20;99.90
21267;DHT22;10791;53.108;18.326;2023-03-01T05:33:22;-3.20;99.90
21267;DHT22;10791;53.108;18.326;2023-03-01T05:38:25;-3.10;99.90
21267;DHT22;10791;53.108;18.326;2023-03-01T05:43:32;-3.10;99.90
21267;DHT22;10791;53.108;18.326;2023-03-01T05:48:38;-3.00;99.90
21267;DHT22;10791;53.108;18.326;2023-03-01T05:53:41;-2.90;99.90
21267;DHT22;10791;53.108;18.326;2023-03-01T05:58:45;-2.90;99.90
21267;DHT22;10791;53.108;18.326;2023-03-01T06:03:48;-2.80;99.90
21267;DHT22;10791;53.108;18.326;2023-03-01T06:08:52;-2.80;99.90
21267;DHT22;10791;53.108;18.326;2023-03-01T06:13:55;-2.70;99.90
21267;DHT22;10791;53.108;18.326;2023-03-01T06:18:59;-2.70;99.90
21267;DHT22;10791;53.108;18.326;2023-03-01T06:24:02;-2.60;99.90
21267;DHT22;10791;53.108;18.326;2023-03-01T06:29:05;-2.60;99.90
21267;DHT22;10791;53.108;18.326;2023-03-01T06:34:09;-2.50;99.90
21267;DHT22;10791;53.108;18.326;2023-03-01T06:39:15;-2.40;99.90
21267;DHT22;10791;53.108;18.326;2023-03-01T06:44:20;-2.30;99.90
21267;DHT22;10791;53.108;18.326;2023-03-01T06:49:23;-2.20;99.90
21267;DHT22;10791;53.108;18.326;2023-03-01T06:54:26;-2.10;99.90
21267;DHT22;10791;53.108;18.326;2023-03-01T06:59:30;-2.10;99.90
21267;DHT22;10791;53.108;18.326;2023-03-01T07:04:34;-2.00;99.90
21267;DHT22;10791;53.108;18.326;2023-03-01T07:09:37;-1.80;99.90
21267;DHT22;10791;53.108;18.326;2023-03-01T07:14:41;-1.90;99.90
21267;DHT22;10791;53.108;18.326;2023-03-01T07:19:44;-1.60;99.90
21267;DHT22;10791;53.108;18.326;2023-03-01T07:24:47;-1.40;99.90
21267;DHT22;10791;53.108;18.326;2023-03-01T07:29:51;-1.20;99.90
21267;DHT22;10791;53.108;18.326;2023-03-01T07:34:54;-1.00;99.90
21267;DHT22;10791;53.108;18.326;2023-03-01T07:39:57;-0.80;99.90
21267;DHT22;10791;53.108;18.326;2023-03-01T07:45:00;-0.60;99.90
21267;DHT22;10791;53.108;18.326;2023-03-01T07:50:04;-0.40;99.90
21267;DHT22;10791;53.108;18.326;2023-03-01T07:55:08;-0.20;99.90
21267;DHT22;10791;53.108;18.326;2023-03-01T08:00:12;0.10;99.90
21267;DHT22;10791;53.108;18.326;2023-03-01T08:05:15;0.30;99.90
21267;DHT22;10791;53.108;18.326;2023-03-01T08:10:18;0.60;99.90
21267;DHT22;10791;53.108;18.326;2023-03-01T08:15:22;0.80;99.90
21267;DHT22;10791;53.108;18.326;2023-03-01T08:20:25;0.90;99.90
21267;DHT22;10791;53.108;18.326;2023-03-01T08:25:28;1.10;99.90
21267;DHT22;10791;53.108;18.326;2023-03-01T08:30:31;1.40;99.90
21267;DHT22;10791;53.108;18.326;2023-03-01T08:35:34;1.60;99.90
21267;DHT22;10791;53.108;18.326;2023-03-01T08:40:38;1.90;99.90
21267;DHT22;10791;53.108;18.326;2023-03-01T08:45:41;2.10;99.90
21267;DHT22;10791;53.108;18.326;2023-03-01T08:50:44;2.40;99.90
21267;DHT22;10791;53.108;18.326;2023-03-01T08:55:47;2.60;99.90
21267;DHT22;10791;53.108;18.326;2023-03-01T09:00:52;2.90;99.90
21267;DHT22;10791;53.108;18.326;2023-03-01T09:06:00;3.20;99.90
21267;DHT22;10791;53.108;18.326;2023-03-01T09:11:06;3.40;99.90
21267;DHT22;10791;53.108;18.326;2023-03-01T09:16:11;3.50;99.90
21267;DHT22;10791;53.108;18.326;2023-03-01T09:21:17;3.80;99.90
21267;DHT22;10791;53.108;18.326;2023-03-01T09:26:32;4.00;99.90
21267;DHT22;10791;53.108;18.326;2023-03-01T09:31:35;4.20;99.90
21267;DHT22;10791;53.108;18.326;2023-03-01T09:36:38;4.50;99.90
21267;DHT22;10791;53.108;18.326;2023-03-01T09:41:46;4.70;99.90
21267;DHT22;10791;53.108;18.326;2023-03-01T09:46:50;4.90;99.90
